Time;durP1;ratioP1;P1;durP2;ratioP2;P2;SDS_P1;SDS_P2;PMS_P1;PMS_P2;Temp;Humidity;BMP_temperature;BMP_pressure;BME280_temperature;BME280_humidity;BME280_pressure;Samples;Min_cycle;Max_cycle;Signal;HPM_P1;HPM_P2
2023/07/17 00:00:31;;;;;;;5.43;3.40;;;;;;;17.12;100.00;94203.09;4952391;29;20043;-58
2023/07/17 00:03:11;;;;;;;5.18;3.40;;;;;;;17.17;100.00;94205.31;4951121;29;20388;-57
2023/07/17 00:05:38;;;;;;;5.43;3.00;;;;;;;17.52;100.00;94208.75;4935645;29;20404;-57
2023/07/17 00:08:06;;;;;;;5.47;3.28;;;;;;;17.72;100.00;94202.09;4951951;29;20051;-58
2023/07/17 00:10:33;;;;;;;5.57;3.10;;;;;;;17.57;100.00;94193.53;4952913;29;20051;-60
2023/07/17 00:12:59;;;;;;;5.22;2.70;;;;;;;17.45;100.00;94192.38;4951782;29;20451;-58
2023/07/17 00:15:26;;;;;;;6.95;3.25;;;;;;;17.64;100.00;94196.03;4949703;28;20047;-57
2023/07/17 00:17:53;;;;;;;4.83;3.10;;;;;;;17.74;100.00;94189.28;4951637;29;20043;-55
2023/07/17 00:20:20;;;;;;;5.03;3.03;;;;;;;17.71;100.00;94193.00;4952409;29;20640;-60
2023/07/17 00:22:47;;;;;;;6.55;3.40;;;;;;;17.75;100.00;94201.94;4952052;29;20054;-58
2023/07/17 00:25:14;;;;;;;5.35;3.00;;;;;;;17.78;100.00;94198.25;4951657;29;20043;-58
2023/07/17 00:27:41;;;;;;;5.80;3.00;;;;;;;17.56;100.00;94195.50;4951888;29;20042;-59
2023/07/17 00:30:08;;;;;;;4.67;2.83;;;;;;;17.72;100.00;94188.97;4933466;29;20068;-57
2023/07/17 00:32:35;;;;;;;5.20;3.05;;;;;;;17.70;100.00;94196.97;4937212;29;20326;-58
2023/07/17 00:35:02;;;;;;;7.15;3.17;;;;;;;17.56;100.00;94200.31;4951615;29;20081;-57
2023/07/17 00:37:28;;;;;;;5.78;3.20;;;;;;;17.46;100.00;94199.47;4935130;29;20612;-59
2023/07/17 00:39:55;;;;;;;5.22;3.28;;;;;;;17.36;100.00;94201.44;4934434;29;20051;-58
2023/07/17 00:42:22;;;;;;;6.17;3.17;;;;;;;17.37;100.00;94202.19;4951835;29;20047;-57
2023/07/17 00:44:49;;;;;;;6.13;3.15;;;;;;;17.44;100.00;94201.94;4951722;29;20409;-57
2023/07/17 00:47:15;;;;;;;5.22;3.10;;;;;;;17.48;100.00;94196.25;4951031;29;20057;-61
2023/07/17 00:49:42;;;;;;;5.18;3.10;;;;;;;17.48;100.00;94199.78;4951811;29;20074;-58
2023/07/17 00:52:10;;;;;;;5.05;3.10;;;;;;;17.54;100.00;94194.44;4951156;29;20058;-60
2023/07/17 00:54:40;;;;;;;5.83;2.93;;;;;;;17.62;100.00;94186.63;4951716;29;20043;-60
2023/07/17 00:57:11;;;;;;;6.40;3.03;;;;;;;17.63;100.00;94180.63;4934062;29;20358;-58
2023/07/17 00:59:38;;;;;;;6.40;3.00;;;;;;;17.54;100.00;94189.66;4938838;29;20125;-61
2023/07/17 01:02:06;;;;;;;6.18;3.30;;;;;;;17.52;100.00;94194.09;4951177;29;20109;-58
2023/07/17 01:04:33;;;;;;;6.63;3.10;;;;;;;17.54;100.00;94191.66;4951267;29;20488;-56
2023/07/17 01:07:00;;;;;;;5.83;3.37;;;;;;;17.64;100.00;94181.38;4950831;29;20061;-58
2023/07/17 01:09:26;;;;;;;6.78;3.20;;;;;;;17.64;100.00;94192.47;4951462;29;20043;-59
2023/07/17 01:11:53;;;;;;;7.45;3.28;;;;;;;17.77;100.00;94193.94;4950595;29;20484;-56
2023/07/17 01:14:20;;;;;;;5.72;2.95;;;;;;;17.76;100.00;94191.63;4951269;29;20035;-57
2023/07/17 01:16:48;;;;;;;6.20;3.05;;;;;;;17.81;100.00;94193.81;4950874;29;20047;-58
2023/07/17 01:19:15;;;;;;;6.13;3.00;;;;;;;17.76;100.00;94200.72;4950745;29;20047;-58
2023/07/17 01:21:51;;;;;;;5.40;3.10;;;;;;;17.67;100.00;94184.03;4950923;29;20051;-60
2023/07/17 01:24:20;;;;;;;5.47;2.90;;;;;;;17.50;100.00;94182.69;4933275;29;20871;-58
2023/07/17 01:26:47;;;;;;;6.32;3.20;;;;;;;17.62;100.00;94190.16;4950786;28;20058;-58
2023/07/17 01:29:14;;;;;;;5.07;3.38;;;;;;;17.31;100.00;94184.59;4949326;29;20043;-59
2023/07/17 01:31:42;;;;;;;6.27;3.40;;;;;;;17.33;100.00;94185.69;4950839;29;20043;-57
2023/07/17 01:34:10;;;;;;;6.18;3.00;;;;;;;17.42;100.00;94193.28;4950346;29;20497;-57
2023/07/17 01:36:36;;;;;;;5.22;3.25;;;;;;;17.56;100.00;94191.97;4950831;29;20049;-57
2023/07/17 01:39:03;;;;;;;7.43;3.28;;;;;;;17.70;100.00;94187.88;4950203;29;20343;-58
2023/07/17 01:41:30;;;;;;;5.95;3.20;;;;;;;17.79;100.00;94190.72;4951030;29;20043;-57
2023/07/17 01:43:57;;;;;;;5.33;3.30;;;;;;;17.84;100.00;94189.38;4950139;29;20061;-59
2023/07/17 01:46:24;;;;;;;5.00;2.80;;;;;;;17.86;100.00;94187.69;4950935;29;20385;-57
2023/07/17 01:48:50;;;;;;;6.10;3.67;;;;;;;17.70;100.00;94196.22;4950535;29;20654;-57
2023/07/17 01:51:17;;;;;;;6.50;3.42;;;;;;;17.48;100.00;94188.69;4950138;29;20128;-58
2023/07/17 01:53:44;;;;;;;5.63;3.05;;;;;;;17.21;100.00;94196.84;4950528;29;20062;-61
2023/07/17 01:56:11;;;;;;;5.83;3.50;;;;;;;17.39;100.00;94194.19;4950362;29;20534;-57
2023/07/17 01:58:38;;;;;;;4.95;3.30;;;;;;;17.55;100.00;94187.66;4950749;29;20399;-57
2023/07/17 02:01:05;;;;;;;7.07;3.35;;;;;;;17.58;100.00;94195.84;4950106;29;20047;-56
2023/07/17 02:03:32;;;;;;;6.63;3.60;;;;;;;17.69;100.00;94208.56;4933224;29;20154;-57
2023/07/17 02:05:59;;;;;;;7.45;3.20;;;;;;;17.69;100.00;94211.34;4949879;29;20069;-58
2023/07/17 02:08:26;;;;;;;5.50;3.23;;;;;;;17.67;100.00;94211.00;4950276;29;20136;-60
2023/07/17 02:10:53;;;;;;;6.28;3.15;;;;;;;17.70;100.00;94215.63;4948761;29;20054;-55
2023/07/17 02:13:19;;;;;;;5.18;3.20;;;;;;;17.71;100.00;94211.66;4950671;29;20048;-57
2023/07/17 02:15:46;;;;;;;6.03;3.33;;;;;;;17.46;100.00;94227.22;4950008;29;20051;-57
2023/07/17 02:18:13;;;;;;;7.15;3.30;;;;;;;17.55;100.00;94213.41;4949990;29;20105;-57
2023/07/17 02:20:40;;;;;;;5.97;3.40;;;;;;;17.43;100.00;94221.81;4948849;29;20066;-57
2023/07/17 02:23:07;;;;;;;7.10;4.28;;;;;;;17.14;100.00;94225.59;4949809;29;20496;-60
2023/07/17 02:25:34;;;;;;;6.00;3.80;;;;;;;17.15;100.00;94208.53;4949941;29;20051;-58
2023/07/17 02:28:00;;;;;;;7.57;4.15;;;;;;;16.97;100.00;94220.25;4949421;29;20051;-60
2023/07/17 02:30:27;;;;;;;6.05;3.70;;;;;;;17.22;100.00;94231.69;4949983;29;20043;-57
2023/07/17 02:32:54;;;;;;;6.17;3.67;;;;;;;17.36;100.00;94228.38;4949771;29;20150;-58
2023/07/17 02:35:21;;;;;;;6.95;3.50;;;;;;;17.45;100.00;94219.38;4950088;29;20118;-61
2023/07/17 02:37:47;;;;;;;5.20;3.00;;;;;;;17.54;100.00;94211.09;4950724;28;20054;-59
2023/07/17 02:40:15;;;;;;;6.57;3.33;;;;;;;17.58;100.00;94231.91;4953934;29;20097;-57
2023/07/17 02:42:42;;;;;;;6.72;3.50;;;;;;;17.63;100.00;94225.03;4953980;29;20069;-59
2023/07/17 02:45:09;;;;;;;5.60;3.10;;;;;;;17.41;100.00;94222.25;4953642;29;20154;-58
2023/07/17 02:47:36;;;;;;;5.53;3.40;;;;;;;17.37;100.00;94224.41;4953712;29;20046;-57
2023/07/17 02:50:07;;;;;;;7.03;3.67;;;;;;;17.19;100.00;94235.38;4922260;29;20082;-57
2023/07/17 02:52:34;;;;;;;7.05;3.70;;;;;;;17.22;100.00;94245.53;4941620;29;20047;-57
2023/07/17 02:55:04;;;;;;;5.57;3.42;;;;;;;17.03;100.00;94239.84;4940570;29;20443;-55
2023/07/17 02:57:34;;;;;;;5.93;3.27;;;;;;;17.06;100.00;94244.50;4953790;29;20047;-57
2023/07/17 03:00:08;;;;;;;7.20;3.80;;;;;;;17.12;100.00;94241.91;4953466;29;20386;-59
2023/07/17 03:02:35;;;;;;;5.40;3.38;;;;;;;17.15;100.00;94255.66;4953729;29;20054;-58
2023/07/17 03:05:09;;;;;;;6.60;3.50;;;;;;;17.22;100.00;94256.63;4953204;29;20137;-57
2023/07/17 03:07:40;;;;;;;5.68;3.50;;;;;;;17.23;100.00;94252.66;4953378;29;20134;-60
2023/07/17 03:10:08;;;;;;;6.30;3.70;;;;;;;17.31;100.00;94260.25;4953107;29;20105;-59
2023/07/17 03:12:34;;;;;;;7.47;3.40;;;;;;;17.36;100.00;94258.91;4953323;29;20300;-60
2023/07/17 03:15:04;;;;;;;7.05;3.40;;;;;;;17.45;100.00;94255.44;4952937;29;20059;-57
2023/07/17 03:17:31;;;;;;;6.75;3.17;;;;;;;17.50;100.00;94252.81;4953205;29;20047;-57
2023/07/17 03:19:58;;;;;;;6.93;3.50;;;;;;;17.25;100.00;94267.63;4952928;29;20043;-58
2023/07/17 03:22:26;;;;;;;7.87;4.17;;;;;;;17.24;100.00;94263.28;4953083;29;20372;-55
2023/07/17 03:24:54;;;;;;;6.82;3.50;;;;;;;17.21;100.00;94266.97;4945083;29;20039;-56
2023/07/17 03:27:21;;;;;;;6.57;3.30;;;;;;;17.24;100.00;94265.28;4953338;29;20043;-57
2023/07/17 03:29:48;;;;;;;7.00;3.60;;;;;;;17.25;100.00;94269.63;4953211;29;20043;-57
2023/07/17 03:32:15;;;;;;;6.18;3.45;;;;;;;17.31;100.00;94270.59;4948379;29;20042;-60
2023/07/17 03:34:42;;;;;;;5.90;3.40;;;;;;;17.35;100.00;94260.91;4950025;29;20046;-58
2023/07/17 03:37:08;;;;;;;8.10;4.05;;;;;;;17.37;100.00;94266.00;4951176;29;20047;-55
2023/07/17 03:39:36;;;;;;;6.93;3.50;;;;;;;17.37;100.00;94266.00;4952884;29;20039;-55
2023/07/17 03:42:06;;;;;;;7.50;3.80;;;;;;;17.34;100.00;94261.34;4952586;29;20304;-57
2023/07/17 03:44:32;;;;;;;5.95;3.78;;;;;;;17.25;100.00;94264.06;4952816;29;20047;-57
2023/07/17 03:46:59;;;;;;;9.03;4.20;;;;;;;17.24;100.00;94263.28;4952309;29;20085;-56
2023/07/17 03:49:26;;;;;;;8.38;3.80;;;;;;;16.98;100.00;94270.91;4941827;29;20110;-62
2023/07/17 03:51:53;;;;;;;6.63;3.60;;;;;;;17.04;100.00;94273.91;4933250;29;20039;-55
2023/07/17 03:54:20;;;;;;;6.50;3.80;;;;;;;17.06;100.00;94277.00;4948604;29;20047;-61
2023/07/17 03:56:46;;;;;;;6.75;3.90;;;;;;;17.16;100.00;94276.66;4950680;28;20047;-57
2023/07/17 03:59:13;;;;;;;5.67;3.20;;;;;;;17.24;100.00;94288.25;4934608;29;20057;-57
2023/07/17 04:01:40;;;;;;;5.80;3.40;;;;;;;17.22;100.00;94282.38;4951684;29;20059;-57
2023/07/17 04:04:07;;;;;;;5.88;3.80;;;;;;;16.85;100.00;94295.16;4951384;29;20047;-57
2023/07/17 04:06:34;;;;;;;6.40;3.75;;;;;;;16.85;100.00;94289.59;4951540;29;20070;-58
2023/07/17 04:09:01;;;;;;;7.95;4.00;;;;;;;16.88;100.00;94303.34;4951093;29;20412;-58
2023/07/17 04:11:30;;;;;;;7.23;3.73;;;;;;;16.96;100.00;94298.31;4951378;29;20053;-59
2023/07/17 04:13:57;;;;;;;8.27;3.65;;;;;;;16.99;100.00;94304.97;4951350;29;20146;-57
2023/07/17 04:16:27;;;;;;;6.32;3.72;;;;;;;17.05;100.00;94305.97;4950524;28;20043;-57
2023/07/17 04:18:53;;;;;;;9.52;4.10;;;;;;;17.10;100.00;94297.84;4951078;28;20055;-55
2023/07/17 04:21:20;;;;;;;7.10;4.13;;;;;;;17.18;100.00;94303.91;4934168;29;20484;-57
2023/07/17 04:23:50;;;;;;;6.57;3.97;;;;;;;17.17;100.00;94292.03;4950966;29;20039;-58
2023/07/17 04:26:17;;;;;;;6.28;3.70;;;;;;;17.15;100.00;94293.72;4951003;29;21178;-57
2023/07/17 04:28:45;;;;;;;8.18;3.83;;;;;;;17.29;100.00;94309.09;4949957;29;20047;-58
2023/07/17 04:31:11;;;;;;;8.52;4.38;;;;;;;17.41;100.00;94315.81;4950825;29;20448;-60
2023/07/17 04:33:38;;;;;;;7.20;3.70;;;;;;;17.44;100.00;94307.34;4935957;29;20109;-56
2023/07/17 04:36:07;;;;;;;7.87;3.93;;;;;;;17.52;100.00;94308.66;4950748;29;20492;-60
2023/07/17 04:38:33;;;;;;;7.57;3.65;;;;;;;17.61;100.00;94309.97;4950905;29;20125;-63
2023/07/17 04:41:00;;;;;;;6.22;4.00;;;;;;;17.70;100.00;94316.34;4951009;29;20176;-57
2023/07/17 04:43:27;;;;;;;7.10;3.85;;;;;;;17.77;100.00;94318.84;4951060;29;20577;-57
2023/07/17 04:45:54;;;;;;;6.75;4.10;;;;;;;17.15;100.00;94325.00;4950311;29;20054;-60
2023/07/17 04:48:25;;;;;;;7.50;4.00;;;;;;;17.09;100.00;94328.81;4949278;29;20043;-58
2023/07/17 04:50:53;;;;;;;6.68;4.05;;;;;;;17.28;100.00;94335.28;4941118;29;20120;-55
2023/07/17 04:53:20;;;;;;;6.45;3.92;;;;;;;17.31;100.00;94329.59;4943031;29;21039;-57
2023/07/17 04:55:48;;;;;;;7.93;4.18;;;;;;;17.25;100.00;94317.53;4951559;29;20110;-57
2023/07/17 04:58:15;;;;;;;6.80;4.43;;;;;;;17.11;100.00;94327.13;4950516;29;20089;-59
2023/07/17 05:00:45;;;;;;;6.70;4.00;;;;;;;17.28;100.00;94322.19;4950634;28;20069;-60
2023/07/17 05:03:14;;;;;;;8.68;4.20;;;;;;;17.51;100.00;94329.31;4950972;29;20051;-59
2023/07/17 05:05:46;;;;;;;6.22;3.90;;;;;;;17.49;100.00;94317.13;4951014;29;20403;-60
2023/07/17 05:08:13;;;;;;;7.50;4.15;;;;;;;17.82;100.00;94320.28;4950802;29;20051;-57
2023/07/17 05:10:40;;;;;;;6.68;4.20;;;;;;;18.11;100.00;94324.78;4950797;29;20055;-57
2023/07/17 05:13:07;;;;;;;6.90;4.00;;;;;;;18.38;100.00;94335.28;4949521;29;20105;-57
2023/07/17 05:15:34;;;;;;;7.32;4.10;;;;;;;18.36;100.00;94329.41;4950741;29;20047;-60
2023/07/17 05:18:01;;;;;;;7.78;4.30;;;;;;;17.88;100.00;94334.38;4950499;29;20419;-58
2023/07/17 05:20:27;;;;;;;8.07;4.20;;;;;;;17.98;100.00;94338.75;4951111;29;20047;-59
2023/07/17 05:22:55;;;;;;;6.97;4.25;;;;;;;17.90;100.00;94341.03;4950514;29;20086;-56
2023/07/17 05:25:22;;;;;;;7.23;3.80;;;;;;;18.03;100.00;94349.28;4950837;29;20744;-57
2023/07/17 05:27:49;;;;;;;9.07;3.92;;;;;;;18.15;100.00;94347.66;4950874;29;20420;-58
2023/07/17 05:30:15;;;;;;;7.32;4.57;;;;;;;17.98;100.00;94338.75;4933321;29;20043;-60
2023/07/17 05:32:42;;;;;;;6.60;4.20;;;;;;;17.80;100.00;94342.16;4950841;29;20043;-58
2023/07/17 05:35:09;;;;;;;7.70;4.20;;;;;;;18.21;100.00;94328.38;4950133;29;20074;-57
2023/07/17 05:37:36;;;;;;;8.10;4.47;;;;;;;19.43;100.00;94343.75;4950790;29;20047;-57
2023/07/17 05:40:04;;;;;;;9.95;4.55;;;;;;;19.43;100.00;94338.19;4932910;29;20051;-59
2023/07/17 05:42:31;;;;;;;9.77;4.50;;;;;;;19.45;100.00;94344.06;4950439;29;20163;-57
2023/07/17 05:44:58;;;;;;;8.80;4.43;;;;;;;20.11;100.00;94349.16;4949613;29;20411;-61
2023/07/17 05:47:25;;;;;;;6.72;4.10;;;;;;;19.87;100.00;94334.34;4950589;29;20461;-58
2023/07/17 05:49:51;;;;;;;7.93;4.20;;;;;;;21.13;100.00;94338.41;4949822;29;20051;-57
2023/07/17 05:52:18;;;;;;;6.72;4.20;;;;;;;20.85;100.00;94332.22;4949547;28;21382;-58
2023/07/17 05:54:45;;;;;;;7.65;4.32;;;;;;;21.58;100.00;94332.25;4950578;28;20734;-58
2023/07/17 05:57:11;;;;;;;6.85;4.20;;;;;;;22.13;99.84;94326.16;4949922;29;20047;-60
2023/07/17 05:59:38;;;;;;;6.97;4.32;;;;;;;21.76;100.00;94331.31;4950549;29;20049;-58
2023/07/17 06:02:05;;;;;;;7.03;4.07;;;;;;;23.34;92.04;94326.25;4943649;29;20067;-58
2023/07/17 06:04:32;;;;;;;9.60;4.05;;;;;;;24.49;83.92;94328.56;4931173;29;20051;-58
2023/07/17 06:06:58;;;;;;;6.35;3.60;;;;;;;24.28;81.89;94333.44;4944868;29;20063;-58
2023/07/17 06:09:25;;;;;;;9.18;3.90;;;;;;;21.95;93.41;94346.66;4950162;29;20389;-62
2023/07/17 06:11:52;;;;;;;6.43;4.00;;;;;;;21.74;96.86;94349.31;4950058;28;20673;-61
2023/07/17 06:14:18;;;;;;;8.57;3.80;;;;;;;21.85;97.29;94342.41;4948961;29;20334;-64
2023/07/17 06:16:45;;;;;;;7.13;3.90;;;;;;;21.60;99.02;94327.72;4947305;28;20154;-58
2023/07/17 06:19:12;;;;;;;6.55;3.80;;;;;;;21.87;98.34;94329.50;4926643;29;20050;-58
2023/07/17 06:21:39;;;;;;;6.07;3.65;;;;;;;24.71;83.56;94338.47;4938862;29;20065;-58
2023/07/17 06:24:09;;;;;;;6.00;3.65;;;;;;;26.37;72.03;94331.84;4930624;29;20448;-63
2023/07/17 06:26:36;;;;;;;5.67;3.50;;;;;;;26.62;67.09;94327.28;4930012;29;20047;-59
2023/07/17 06:29:05;;;;;;;7.95;3.75;;;;;;;27.32;63.54;94323.91;4915718;29;20125;-59
2023/07/17 06:31:32;;;;;;;7.82;3.95;;;;;;;28.46;57.13;94332.09;4941398;29;20456;-62
2023/07/17 06:33:59;;;;;;;5.55;3.17;;;;;;;28.48;55.31;94338.00;4949444;29;20101;-64
2023/07/17 06:36:26;;;;;;;5.72;3.35;;;;;;;30.71;46.93;94333.81;4949360;29;20039;-64
2023/07/17 06:38:53;;;;;;;6.53;3.60;;;;;;;29.29;47.54;94334.03;4956415;28;20070;-63
2023/07/17 06:41:20;;;;;;;7.00;3.65;;;;;;;28.05;48.65;94332.09;4940930;28;20666;-63
2023/07/17 06:43:46;;;;;;;7.72;3.60;;;;;;;26.77;51.65;94331.91;4941771;29;20488;-62
2023/07/17 06:46:13;;;;;;;6.03;3.15;;;;;;;26.70;53.56;94336.75;4934252;28;20054;-63
2023/07/17 06:48:41;;;;;;;6.18;3.30;;;;;;;26.26;54.14;94343.84;4943475;28;20052;-64
2023/07/17 06:51:08;;;;;;;5.90;3.47;;;;;;;24.81;60.17;94353.84;4929910;29;20062;-64
2023/07/17 06:53:35;;;;;;;5.18;3.30;;;;;;;25.15;60.64;94336.44;4936001;29;20051;-62
2023/07/17 06:56:01;;;;;;;9.48;3.35;;;;;;;23.73;65.88;94346.34;4923473;29;20047;-61
2023/07/17 06:58:29;;;;;;;6.95;3.55;;;;;;;23.57;70.10;94344.13;4939526;29;20043;-62
2023/07/17 07:00:56;;;;;;;6.97;3.60;;;;;;;24.14;69.62;94345.56;4941297;28;20054;-62
2023/07/17 07:03:25;;;;;;;7.43;3.63;;;;;;;24.38;67.80;94338.91;4931094;29;20044;-63
2023/07/17 07:06:00;;;;;;;7.53;3.65;;;;;;;23.66;69.38;94346.00;4918592;29;20074;-64
2023/07/17 07:08:29;;;;;;;7.82;4.00;;;;;;;23.29;71.50;94352.16;4930109;29;20419;-62
2023/07/17 07:10:59;;;;;;;6.90;3.58;;;;;;;22.84;74.83;94359.88;4919268;29;20044;-62
2023/07/17 07:13:26;;;;;;;6.45;3.67;;;;;;;22.87;74.54;94356.13;4931226;29;20062;-62
2023/07/17 07:15:53;;;;;;;7.40;3.80;;;;;;;24.22;67.74;94352.25;4930514;29;20048;-62
2023/07/17 07:18:21;;;;;;;6.47;3.90;;;;;;;25.96;62.02;94362.41;4931340;29;20046;-65
2023/07/17 07:20:51;;;;;;;7.70;3.80;;;;;;;26.29;58.25;94351.25;4931139;29;20445;-64
2023/07/17 07:23:18;;;;;;;7.28;3.92;;;;;;;26.20;51.50;94353.53;4930283;29;20058;-64
2023/07/17 07:25:46;;;;;;;6.38;3.67;;;;;;;28.42;47.96;94354.19;4934304;29;20473;-65
2023/07/17 07:28:13;;;;;;;6.93;3.50;;;;;;;29.79;44.84;94357.44;4932354;29;20071;-63
2023/07/17 07:30:39;;;;;;;6.93;4.10;;;;;;;29.71;43.20;94362.91;4929409;29;20378;-62
2023/07/17 07:33:06;;;;;;;7.55;5.10;;;;;;;29.48;42.26;94353.91;4930260;29;20074;-63
2023/07/17 07:35:33;;;;;;;7.68;3.70;;;;;;;31.95;38.18;94350.69;4930066;29;20142;-64
2023/07/17 07:38:00;;;;;;;5.90;3.80;;;;;;;30.36;38.06;94346.16;4933488;29;20047;-63
2023/07/17 07:40:27;;;;;;;6.60;4.00;;;;;;;32.54;35.56;94339.13;4934530;29;20044;-63
2023/07/17 07:42:53;;;;;;;6.10;3.85;;;;;;;33.15;34.01;94348.31;4933833;29;20047;-63
2023/07/17 07:45:21;;;;;;;6.72;3.78;;;;;;;31.93;35.03;94345.56;4934037;29;20044;-62
2023/07/17 07:47:47;;;;;;;8.25;3.90;;;;;;;31.35;34.99;94350.03;4933874;29;20609;-63
2023/07/17 07:50:14;;;;;;;7.32;3.80;;;;;;;30.89;34.88;94351.31;4948094;29;20044;-62
2023/07/17 07:52:41;;;;;;;6.40;3.70;;;;;;;30.51;34.71;94368.38;4934365;29;20040;-63
2023/07/17 07:55:08;;;;;;;6.78;3.72;;;;;;;29.27;36.52;94357.16;4933623;29;20055;-63
2023/07/17 07:57:37;;;;;;;7.72;3.90;;;;;;;29.65;35.94;94357.28;4934011;29;20055;-63
2023/07/17 08:00:05;;;;;;;7.72;4.10;;;;;;;28.09;38.24;94349.50;4933886;29;20048;-62
2023/07/17 08:02:32;;;;;;;7.82;3.80;;;;;;;28.31;39.41;94357.09;4933915;29;20043;-62
2023/07/17 08:04:59;;;;;;;7.00;3.70;;;;;;;28.11;38.35;94349.78;4933565;29;20044;-62
2023/07/17 08:07:25;;;;;;;6.72;3.95;;;;;;;28.56;38.09;94357.22;4934191;29;20048;-62
2023/07/17 08:09:52;;;;;;;6.25;4.00;;;;;;;28.25;37.71;94357.13;4933668;29;20047;-62
2023/07/17 08:12:19;;;;;;;7.03;4.05;;;;;;;27.45;39.65;94361.53;4933024;29;20885;-64
2023/07/17 08:14:45;;;;;;;7.30;3.78;;;;;;;28.02;36.65;94355.72;4932199;29;20047;-62
2023/07/17 08:17:12;;;;;;;6.10;4.10;;;;;;;27.99;37.56;94360.34;4931675;29;20053;-62
2023/07/17 08:19:39;;;;;;;7.25;4.25;;;;;;;27.88;37.21;94363.22;4916301;29;20149;-64
2023/07/17 08:22:06;;;;;;;6.38;3.75;;;;;;;28.23;36.99;94356.88;4933083;29;20408;-63
2023/07/17 08:24:32;;;;;;;7.13;3.90;;;;;;;29.16;35.09;94368.59;4933490;29;20370;-62
2023/07/17 08:26:59;;;;;;;6.45;3.83;;;;;;;29.91;34.17;94363.72;4933267;29;20043;-64
2023/07/17 08:29:31;;;;;;;6.30;4.23;;;;;;;29.20;35.30;94371.88;4933473;29;20047;-64
2023/07/17 08:31:57;;;;;;;6.22;4.00;;;;;;;28.72;36.31;94378.19;4933347;29;20052;-62
2023/07/17 08:34:25;;;;;;;5.95;3.83;;;;;;;28.88;36.84;94380.84;4920945;29;20058;-61
2023/07/17 08:36:52;;;;;;;6.53;3.90;;;;;;;29.44;35.59;94373.22;4932652;29;20043;-62
2023/07/17 08:39:19;;;;;;;7.05;4.00;;;;;;;29.70;35.15;94364.19;4932126;29;20051;-62
2023/07/17 08:41:46;;;;;;;5.60;3.70;;;;;;;30.72;34.89;94371.38;4933014;29;20051;-63
2023/07/17 08:44:16;;;;;;;6.10;3.95;;;;;;;29.84;34.46;94370.72;4932489;29;20125;-62
2023/07/17 08:46:46;;;;;;;7.38;3.85;;;;;;;28.12;37.79;94364.66;4933048;29;20452;-62
2023/07/17 08:49:18;;;;;;;6.95;4.07;;;;;;;29.74;35.18;94373.19;4932741;29;20350;-62
2023/07/17 08:51:49;;;;;;;6.82;4.07;;;;;;;29.86;34.90;94374.56;4932992;29;20705;-63
2023/07/17 08:54:16;;;;;;;5.93;3.40;;;;;;;28.37;37.28;94371.16;4947120;28;20388;-63
2023/07/17 08:57:04;;;;;;;7.13;3.95;;;;;;;27.15;39.25;94374.63;4945754;29;20058;-62
2023/07/17 08:59:33;;;;;;;7.47;3.80;;;;;;;27.80;39.26;94368.59;4933386;29;20425;-62
2023/07/17 09:02:04;;;;;;;6.07;3.80;;;;;;;28.82;37.79;94370.91;4932148;29;20042;-65
2023/07/17 09:04:33;;;;;;;6.25;3.83;;;;;;;27.95;38.31;94371.13;4933132;29;20102;-62
2023/07/17 09:07:00;;;;;;;6.20;3.80;;;;;;;29.62;36.47;94369.66;4932299;29;20062;-63
2023/07/17 09:09:27;;;;;;;5.43;3.55;;;;;;;31.89;33.75;94355.72;4932575;29;20044;-63
2023/07/17 09:12:06;;;;;;;5.80;4.00;;;;;;;30.93;34.10;94363.09;4932498;29;20050;-63
2023/07/17 09:14:34;;;;;;;5.57;3.85;;;;;;;30.14;34.74;94369.84;4932466;29;20044;-63
2023/07/17 09:17:03;;;;;;;5.55;3.75;;;;;;;30.20;34.96;94359.22;4931906;29;20078;-63
2023/07/17 09:19:31;;;;;;;5.67;3.83;;;;;;;28.52;36.80;94363.16;4932375;29;20070;-64
2023/07/17 09:21:59;;;;;;;7.20;3.72;;;;;;;32.27;33.29;94352.66;4932101;29;20106;-63
2023/07/17 09:24:27;;;;;;;5.32;3.63;;;;;;;32.95;30.80;94349.06;4932564;29;20039;-61
2023/07/17 09:26:56;;;;;;;5.38;3.80;;;;;;;33.58;29.70;94360.41;4931866;29;20506;-61
2023/07/17 09:29:23;;;;;;;7.32;4.10;;;;;;;32.44;29.75;94347.38;4946471;29;20090;-62
2023/07/17 09:31:51;;;;;;;5.67;3.33;;;;;;;34.35;28.58;94352.34;4919034;29;20048;-62
2023/07/17 09:34:18;;;;;;;7.28;3.75;;;;;;;34.30;29.16;94348.34;4918020;29;20050;-62
2023/07/17 09:36:50;;;;;;;7.00;3.80;;;;;;;36.10;25.87;94343.75;4931703;29;20412;-62
2023/07/17 09:39:17;;;;;;;6.63;3.75;;;;;;;32.49;30.48;94343.63;4931347;29;20043;-62
2023/07/17 09:41:44;;;;;;;6.13;3.60;;;;;;;34.65;27.64;94342.38;4938351;29;20042;-61
2023/07/17 09:44:17;;;;;;;5.63;3.77;;;;;;;34.93;27.02;94347.97;4949881;29;20106;-62
2023/07/17 09:46:44;;;;;;;4.95;3.53;;;;;;;35.87;25.84;94349.53;4950578;28;20050;-62
2023/07/17 09:49:12;;;;;;;7.10;3.58;;;;;;;35.16;26.21;94350.13;4932556;29;20043;-62
2023/07/17 09:51:39;;;;;;;6.60;3.90;;;;;;;35.67;25.96;94354.13;4933377;29;20058;-62
2023/07/17 09:54:05;;;;;;;5.88;3.75;;;;;;;36.38;25.64;94337.00;4949829;29;20527;-61
2023/07/17 09:56:33;;;;;;;6.03;3.63;;;;;;;35.92;25.42;94349.31;4950577;29;20047;-63
2023/07/17 09:59:13;;;;;;;5.60;3.63;;;;;;;35.75;24.92;94335.63;4949474;29;20047;-61
2023/07/17 10:01:47;;;;;;;6.13;4.30;;;;;;;32.54;28.57;94334.22;4950352;29;20091;-61
2023/07/17 10:04:38;;;;;;;5.63;3.90;;;;;;;33.56;28.66;94334.59;4949507;29;20057;-61
2023/07/17 10:07:07;;;;;;;5.65;4.10;;;;;;;34.44;26.66;94337.56;4949456;29;20055;-62
2023/07/17 10:09:36;;;;;;;7.10;4.10;;;;;;;37.10;23.67;94338.31;4950344;29;20050;-62
2023/07/17 10:12:08;;;;;;;6.93;4.00;;;;;;;35.84;25.10;94345.72;4949680;28;20501;-62
2023/07/17 10:14:35;;;;;;;5.97;3.47;;;;;;;35.53;25.93;94347.81;4949947;29;20042;-63
2023/07/17 10:17:03;;;;;;;7.30;3.85;;;;;;;34.36;27.21;94345.31;4949315;29;20358;-62
2023/07/17 10:19:44;;;;;;;6.95;3.80;;;;;;;33.78;27.38;94351.06;4950053;29;20450;-62
2023/07/17 10:22:14;;;;;;;4.93;3.77;;;;;;;34.39;26.98;94341.31;4949464;29;20043;-62
2023/07/17 10:24:41;;;;;;;6.53;3.80;;;;;;;35.32;26.95;94340.22;4949803;29;20055;-61
2023/07/17 10:27:08;;;;;;;5.82;4.00;;;;;;;34.62;26.97;94335.72;4948266;29;20407;-62
2023/07/17 10:29:41;;;;;;;6.05;3.90;;;;;;;32.86;29.47;94341.78;4949879;29;20047;-62
2023/07/17 10:32:09;;;;;;;7.20;4.10;;;;;;;34.11;28.02;94342.91;4934796;29;20066;-61
2023/07/17 10:34:53;;;;;;;6.07;4.50;;;;;;;32.60;29.74;94340.56;4938692;29;20054;-61
2023/07/17 10:37:31;;;;;;;6.38;4.00;;;;;;;31.97;30.44;94342.41;4949546;29;20618;-60
2023/07/17 10:40:06;;;;;;;6.35;4.03;;;;;;;30.23;32.64;94346.84;4949849;29;20055;-62
2023/07/17 10:42:33;;;;;;;6.00;4.15;;;;;;;28.93;35.03;94334.06;4950141;29;20417;-62
2023/07/17 10:45:11;;;;;;;6.20;4.10;;;;;;;29.95;34.84;94325.31;4949711;29;20065;-63
2023/07/17 10:47:38;;;;;;;8.30;4.37;;;;;;;30.09;34.34;94317.69;4949973;29;20035;-64
2023/07/17 10:50:06;;;;;;;6.82;4.18;;;;;;;30.67;34.29;94317.13;4949837;29;20043;-62
2023/07/17 10:52:34;;;;;;;7.18;4.40;;;;;;;30.89;32.38;94322.97;4950114;29;20056;-61
2023/07/17 10:55:05;;;;;;;7.95;4.30;;;;;;;29.34;35.06;94316.25;4949834;29;20070;-62
2023/07/17 10:57:32;;;;;;;7.05;4.10;;;;;;;28.27;36.86;94317.06;4937766;29;20477;-61
2023/07/17 10:59:59;;;;;;;7.17;4.30;;;;;;;28.63;37.00;94319.94;4952169;28;20051;-62
2023/07/17 11:02:26;;;;;;;6.78;4.15;;;;;;;27.92;38.54;94323.44;4954256;29;20408;-63
2023/07/17 11:04:58;;;;;;;6.30;4.32;;;;;;;28.51;38.04;94324.16;4953661;29;20047;-61
2023/07/17 11:07:24;;;;;;;7.03;4.45;;;;;;;27.91;37.60;94319.09;4952893;29;20746;-61
2023/07/17 11:09:51;;;;;;;7.72;4.43;;;;;;;28.24;37.70;94324.53;4953697;29;20153;-64
2023/07/17 11:12:18;;;;;;;7.50;4.30;;;;;;;28.23;37.32;94319.41;4952253;29;20477;-62
2023/07/17 11:14:45;;;;;;;5.85;4.40;;;;;;;28.43;38.64;94319.03;4953741;29;20050;-62
2023/07/17 11:17:12;;;;;;;7.40;4.22;;;;;;;28.73;38.14;94300.59;4953003;29;20418;-64
2023/07/17 11:19:39;;;;;;;8.27;4.50;;;;;;;28.87;37.22;94294.56;4953629;29;20039;-63
2023/07/17 11:22:06;;;;;;;7.30;4.90;;;;;;;29.32;37.66;94292.63;4953417;29;20051;-63
2023/07/17 11:24:32;;;;;;;9.40;6.20;;;;;;;29.21;37.27;94291.44;4953536;29;20051;-62
2023/07/17 11:26:59;;;;;;;7.18;5.30;;;;;;;29.27;38.25;94299.88;4953138;29;20078;-63
2023/07/17 11:29:26;;;;;;;6.63;4.80;;;;;;;29.36;36.02;94302.34;4953527;29;20047;-63
2023/07/17 11:31:59;;;;;;;6.63;3.90;;;;;;;29.16;35.14;94291.53;4953410;29;20043;-64